createdAt,value
2022-10-03T00:01:58.310Z,99953.34
2022-10-03T00:04:51.202Z,99955.38
2022-10-03T00:07:36.376Z,99958.81
2022-10-03T00:10:18.184Z,99964.66
2022-10-03T00:13:05.745Z,99969.28
2022-10-03T00:15:42.030Z,99972.88
2022-10-03T00:18:23.615Z,99964.94
2022-10-03T00:21:11.922Z,99966.44
2022-10-03T00:23:51.226Z,99980.16
2022-10-03T00:26:30.713Z,99970.53
2022-10-03T00:29:27.197Z,99985.22
2022-10-03T00:32:08.635Z,99981.19
2022-10-03T00:34:53.482Z,99978.75
2022-10-03T00:37:30.463Z,99982.31
2022-10-03T00:40:34.887Z,99994.19
2022-10-03T00:43:28.331Z,99987.75
2022-10-03T00:46:26.022Z,99989.28
2022-10-03T00:49:22.954Z,99988.00
2022-10-03T00:52:06.889Z,99994.94
2022-10-03T00:54:53.777Z,99982.25
2022-10-03T00:57:39.637Z,99983.50
2022-10-03T01:00:19.918Z,99992.53
2022-10-03T01:03:26.758Z,99986.50
2022-10-03T01:06:22.197Z,99996.66
2022-10-03T01:09:25.627Z,99998.81
2022-10-03T01:12:08.669Z,100009.53
2022-10-03T01:15:00.532Z,100003.81
2022-10-03T01:17:38.012Z,100005.56
2022-10-03T01:20:23.980Z,100000.69
2022-10-03T01:23:23.991Z,100015.31
2022-10-03T01:25:59.991Z,100014.66
2022-10-03T01:29:17.219Z,100013.91
2022-10-03T01:31:52.003Z,100008.00
2022-10-03T01:34:28.131Z,100009.41
2022-10-03T01:37:08.314Z,100003.84
2022-10-03T01:39:48.839Z,100016.47
2022-10-03T01:42:31.770Z,100003.78
2022-10-03T01:45:14.360Z,100011.59
2022-10-03T01:47:51.905Z,100007.56
2022-10-03T01:50:29.450Z,100010.00
2022-10-03T01:53:05.146Z,100014.78
2022-10-03T01:55:44.432Z,100028.84
2022-10-03T01:58:21.229Z,100028.84
2022-10-03T02:00:59.583Z,100022.13
2022-10-03T02:03:33.828Z,100029.69
2022-10-03T02:06:08.892Z,100045.66
2022-10-03T02:08:54.748Z,100047.44
2022-10-03T02:11:33.569Z,100056.84
2022-10-03T02:14:26.098Z,100042.72
2022-10-03T02:17:03.460Z,100060.44
2022-10-03T02:19:39.739Z,100057.88
2022-10-03T02:22:17.263Z,100062.59
2022-10-03T02:24:55.971Z,100072.75
2022-10-03T02:28:10.568Z,100071.84
2022-10-03T02:30:55.052Z,100065.09
2022-10-03T02:34:03.648Z,100059.31
2022-10-03T02:37:22.794Z,100064.19
2022-10-03T02:40:17.756Z,100069.72
2022-10-03T02:43:19.386Z,100065.97
2022-10-03T02:46:20.663Z,100077.66
2022-10-03T02:49:22.634Z,100075.03
2022-10-03T02:52:26.881Z,100066.41
2022-10-03T02:55:08.844Z,100069.69
2022-10-03T02:58:07.687Z,100066.13
2022-10-03T03:01:13.310Z,100074.88
2022-10-03T03:04:20.028Z,100065.22
2022-10-03T03:07:20.218Z,100074.16
2022-10-03T03:10:09.167Z,100078.28
2022-10-03T03:13:09.715Z,100075.19
2022-10-03T03:16:13.757Z,100082.94
2022-10-03T03:18:48.069Z,100086.97
2022-10-03T03:21:36.347Z,100092.00
2022-10-03T03:24:23.884Z,100087.41
2022-10-03T03:27:02.578Z,100095.63
2022-10-03T03:29:40.751Z,100097.44
2022-10-03T03:32:22.444Z,100093.63
2022-10-03T03:35:04.418Z,100103.41
2022-10-03T03:37:43.642Z,100099.34
2022-10-03T03:40:32.837Z,100109.19
2022-10-03T03:43:34.653Z,100105.84
2022-10-03T03:46:20.845Z,100103.41
2022-10-03T03:49:35.565Z,100105.06
2022-10-03T03:52:20.277Z,100121.53
2022-10-03T03:55:10.211Z,100114.31
2022-10-03T03:58:03.775Z,100104.81
2022-10-03T04:00:48.215Z,100104.47
2022-10-03T04:06:35.804Z,100090.16
2022-10-03T04:09:22.062Z,100093.78
2022-10-03T04:12:29.856Z,100099.56
2022-10-03T04:15:34.764Z,100102.84
2022-10-03T04:18:49.945Z,100101.69
2022-10-03T04:21:55.454Z,100099.47
2022-10-03T04:24:46.434Z,100104.22
2022-10-03T04:27:43.105Z,100103.31
2022-10-03T04:30:16.411Z,100104.31
2022-10-03T04:32:58.192Z,100107.25
2022-10-03T04:35:56.317Z,100102.84
2022-10-03T04:38:40.953Z,100098.69
2022-10-03T04:41:23.611Z,100101.06
2022-10-03T04:44:02.388Z,100090.13
2022-10-03T04:46:43.102Z,100096.41
2022-10-03T04:49:20.479Z,100093.69
2022-10-03T04:51:59.156Z,100093.22
2022-10-03T04:54:43.712Z,100088.41
2022-10-03T04:57:27.710Z,100084.38
2022-10-03T05:00:05.632Z,100088.41
2022-10-03T05:02:47.817Z,100091.19
2022-10-03T05:05:42.184Z,100093.31
2022-10-03T05:08:21.327Z,100091.06
2022-10-03T05:11:00.804Z,100088.22
2022-10-03T05:13:48.766Z,100104.94
2022-10-03T05:16:23.520Z,100098.19
2022-10-03T05:18:59.245Z,100099.28
2022-10-03T05:21:41.711Z,100093.50
2022-10-03T05:24:21.251Z,100098.50
2022-10-03T05:26:59.064Z,100105.03
2022-10-03T05:29:40.057Z,100107.63
2022-10-03T05:32:20.315Z,100100.00
2022-10-03T05:35:06.793Z,100111.53
2022-10-03T05:38:05.116Z,100111.72
2022-10-03T05:40:37.068Z,100111.66
2022-10-03T05:43:20.769Z,100124.81
2022-10-03T05:46:02.547Z,100119.59
2022-10-03T05:48:45.592Z,100126.25
2022-10-03T05:51:42.692Z,100133.00
2022-10-03T05:54:51.607Z,100131.38
2022-10-03T05:58:05.975Z,100132.88
2022-10-03T06:00:54.598Z,100129.03
2022-10-03T06:03:59.332Z,100134.72
2022-10-03T06:06:44.185Z,100133.38
2022-10-03T06:09:41.660Z,100137.31
2022-10-03T06:12:14.476Z,100138.75
2022-10-03T06:15:09.067Z,100150.00
2022-10-03T06:17:58.088Z,100148.78
2022-10-03T06:21:06.674Z,100151.41
2022-10-03T06:24:08.787Z,100155.34
2022-10-03T06:27:05.495Z,100152.66
2022-10-03T06:29:56.902Z,100158.78
2022-10-03T06:33:18.319Z,100152.09
2022-10-03T06:36:09.731Z,100151.59
2022-10-03T06:39:27.793Z,100154.97
2022-10-03T06:42:28.578Z,100146.03
2022-10-03T06:45:30.665Z,100145.41
2022-10-03T06:48:17.575Z,100149.25
2022-10-03T06:50:55.755Z,100149.75
2022-10-03T06:53:39.646Z,100152.59
2022-10-03T06:56:51.931Z,100162.63
2022-10-03T06:59:58.650Z,100168.03
2022-10-03T07:02:53.267Z,100155.75
2022-10-03T07:05:53.574Z,100169.03
2022-10-03T07:09:00.120Z,100166.59
2022-10-03T07:12:10.816Z,100183.53
2022-10-03T07:15:18.104Z,100187.56
2022-10-03T07:18:14.333Z,100189.22
2022-10-03T07:21:16.960Z,100185.03
2022-10-03T07:24:11.409Z,100192.19
2022-10-03T07:27:09.999Z,100194.19
2022-10-03T07:30:05.880Z,100198.16
2022-10-03T07:33:24.837Z,100200.31
2022-10-03T07:36:36.879Z,100195.69
2022-10-03T07:39:42.389Z,100207.94
2022-10-03T07:42:46.754Z,100206.53
2022-10-03T07:45:35.044Z,100202.59
2022-10-03T07:48:53.825Z,100207.84
2022-10-03T07:51:25.673Z,100211.50
2022-10-03T07:54:42.106Z,100207.66
2022-10-03T07:57:38.573Z,100219.22
2022-10-03T08:00:22.844Z,100224.16
2022-10-03T08:03:35.611Z,100225.31
2022-10-03T08:06:24.904Z,100222.19
2022-10-03T08:09:10.104Z,100226.72
2022-10-03T08:12:15.179Z,100229.06
2022-10-03T08:14:55.027Z,100231.03
2022-10-03T08:18:15.295Z,100239.22
2022-10-03T08:20:54.833Z,100234.75
2022-10-03T08:23:58.401Z,100237.34
2022-10-03T08:26:44.690Z,100227.38
2022-10-03T08:29:30.414Z,100236.41
2022-10-03T08:32:47.820Z,100236.84
2022-10-03T08:35:44.057Z,100236.94
2022-10-03T08:38:43.507Z,100231.28
2022-10-03T08:42:01.967Z,100219.25
2022-10-03T08:45:22.119Z,100226.81
2022-10-03T08:48:30.621Z,100231.78
2022-10-03T08:51:35.968Z,100231.38
2022-10-03T08:54:23.474Z,100220.78
2022-10-03T08:57:16.287Z,100216.38
2022-10-03T09:00:05.633Z,100210.63
2022-10-03T09:03:40.502Z,100210.69
2022-10-03T09:06:52.816Z,100203.88
2022-10-03T09:09:53.902Z,100204.19
2022-10-03T09:12:42.855Z,100209.50
2022-10-03T09:15:42.627Z,100202.81
2022-10-03T09:18:44.670Z,100202.72
2022-10-03T09:21:50.282Z,100192.31
2022-10-03T09:24:55.647Z,100196.25
2022-10-03T09:27:43.590Z,100194.13
2022-10-03T09:30:42.490Z,100189.09
2022-10-03T09:33:46.024Z,100187.47
2022-10-03T09:36:51.519Z,100176.53
2022-10-03T09:40:03.939Z,100181.41
2022-10-03T09:43:08.553Z,100182.59
2022-10-03T09:46:04.982Z,100175.00
2022-10-03T09:49:01.190Z,100172.47
2022-10-03T09:51:48.672Z,100178.41
2022-10-03T09:54:51.994Z,100172.44
2022-10-03T09:57:49.809Z,100174.56
2022-10-03T10:00:28.176Z,100182.31
2022-10-03T10:03:33.555Z,100178.22
2022-10-03T10:06:36.168Z,100170.25
2022-10-03T10:09:41.478Z,100173.66
2022-10-03T10:12:54.649Z,100176.22
2022-10-03T10:16:11.303Z,100165.97
2022-10-03T10:19:23.070Z,100166.31
2022-10-03T10:22:13.241Z,100169.09
2022-10-03T10:25:25.092Z,100163.88
2022-10-03T10:28:35.286Z,100164.06
2022-10-03T10:31:48.568Z,100158.44
2022-10-03T10:34:53.473Z,100158.28
2022-10-03T10:37:55.495Z,100151.31
2022-10-03T10:41:03.725Z,100147.25
2022-10-03T10:44:05.442Z,100157.47
2022-10-03T10:46:59.183Z,100147.81
2022-10-03T10:50:13.588Z,100147.22
2022-10-03T10:53:18.364Z,100145.22
2022-10-03T10:56:15.783Z,100144.72
2022-10-03T10:59:20.224Z,100151.38
2022-10-03T11:02:30.109Z,100151.28
2022-10-03T11:05:36.194Z,100143.16
2022-10-03T11:08:55.398Z,100151.34
2022-10-03T11:12:17.895Z,100150.41
2022-10-03T11:15:27.364Z,100141.66
2022-10-03T11:18:27.342Z,100136.53
2022-10-03T11:21:34.652Z,100134.63
2022-10-03T11:24:33.369Z,100124.63
2022-10-03T11:27:44.371Z,100120.09
2022-10-03T11:30:59.358Z,100114.06
2022-10-03T11:33:52.702Z,100108.38
2022-10-03T11:36:57.683Z,100099.56
2022-10-03T11:39:35.159Z,100098.97
2022-10-03T11:42:13.233Z,100100.66
2022-10-03T11:44:50.837Z,100100.78
2022-10-03T11:47:44.579Z,100092.28
2022-10-03T11:50:50.131Z,100099.63
2022-10-03T11:53:50.208Z,100097.50
2022-10-03T11:56:31.356Z,100098.53
2022-10-03T11:59:30.687Z,100092.72
2022-10-03T12:02:24.653Z,100085.66
2022-10-03T12:05:01.916Z,100086.50
2022-10-03T12:08:07.762Z,100082.28
2022-10-03T12:10:57.488Z,100082.06
2022-10-03T12:13:42.310Z,100081.03
2022-10-03T12:16:27.976Z,100077.66
2022-10-03T12:19:17.425Z,100074.19
2022-10-03T12:21:55.031Z,100073.97
2022-10-03T12:24:27.715Z,100072.59
2022-10-03T12:27:08.575Z,100072.38
2022-10-03T12:29:42.907Z,100084.28
2022-10-03T12:32:25.781Z,100084.13
2022-10-03T12:35:08.882Z,100065.56
2022-10-03T12:37:48.293Z,100074.06
2022-10-03T12:40:27.191Z,100069.69
2022-10-03T12:43:10.049Z,100063.72
2022-10-03T12:45:44.631Z,100061.16
2022-10-03T12:48:36.575Z,100058.84
2022-10-03T12:51:22.688Z,100051.28
2022-10-03T12:54:05.671Z,100051.16
2022-10-03T12:56:48.695Z,100053.59
2022-10-03T12:59:35.582Z,100063.34
2022-10-03T13:02:26.575Z,100061.88
2022-10-03T13:05:24.092Z,100061.44
2022-10-03T13:08:01.694Z,100055.56
2022-10-03T13:10:40.189Z,100061.50
2022-10-03T13:13:27.684Z,100060.59
2022-10-03T13:16:19.966Z,100062.59
2022-10-03T13:19:01.043Z,100049.56
2022-10-03T13:22:03.831Z,100046.91
2022-10-03T13:24:42.043Z,100045.69
2022-10-03T13:27:32.439Z,100048.22
2022-10-03T13:30:07.513Z,100044.88
2022-10-03T13:32:42.552Z,100055.66
2022-10-03T13:35:51.923Z,100046.28
2022-10-03T13:38:55.355Z,100047.59
2022-10-03T13:41:48.735Z,100041.53
2022-10-03T13:44:22.671Z,100045.09
2022-10-03T13:46:56.013Z,100043.13
2022-10-03T13:49:32.760Z,100033.34
2022-10-03T13:52:08.322Z,100040.22
2022-10-03T13:54:58.883Z,100037.03
2022-10-03T13:57:35.519Z,100032.59
2022-10-03T14:00:11.251Z,100034.34
2022-10-03T14:03:01.467Z,100037.03
2022-10-03T14:05:52.258Z,100041.44
2022-10-03T14:08:45.143Z,100044.84
2022-10-03T14:11:39.891Z,100045.97
2022-10-03T14:14:27.205Z,100040.19
2022-10-03T14:17:03.769Z,100036.75
2022-10-03T14:19:45.585Z,100037.66
2022-10-03T14:22:25.892Z,100043.22
2022-10-03T14:25:09.288Z,100042.38
2022-10-03T14:27:46.376Z,100044.50
2022-10-03T14:30:24.457Z,100037.78
2022-10-03T14:33:21.221Z,100041.19
2022-10-03T14:36:02.072Z,100040.19
2022-10-03T14:39:05.621Z,100027.38
2022-10-03T14:41:47.508Z,100031.75
2022-10-03T14:44:23.049Z,100027.09
2022-10-03T14:46:59.067Z,100023.25
2022-10-03T14:49:53.528Z,100026.91
2022-10-03T14:52:33.458Z,100032.59
2022-10-03T14:55:14.125Z,100018.47
2022-10-03T14:58:12.220Z,100024.53
2022-10-03T15:00:46.121Z,100017.00
2022-10-03T15:03:23.326Z,100021.53
2022-10-03T15:06:20.716Z,100016.03
2022-10-03T15:08:51.723Z,100012.81
2022-10-03T15:11:27.472Z,100017.78
2022-10-03T15:13:58.724Z,100016.34
2022-10-03T15:16:32.891Z,100005.50
2022-10-03T15:19:12.156Z,100011.97
2022-10-03T15:21:46.127Z,100000.81
2022-10-03T15:24:25.093Z,100006.88
2022-10-03T15:27:03.847Z,99999.66
2022-10-03T15:29:34.840Z,100009.84
2022-10-03T15:32:08.726Z,100002.91
2022-10-03T15:34:48.836Z,100002.94
2022-10-03T15:37:19.955Z,100001.25
2022-10-03T15:39:52.867Z,99999.28
2022-10-03T15:42:31.993Z,100003.72
2022-10-03T15:45:06.746Z,100010.78
2022-10-03T15:47:42.621Z,100004.91
2022-10-03T15:50:21.387Z,100007.22
2022-10-03T15:52:54.396Z,100014.84
2022-10-03T15:55:28.276Z,100015.34
2022-10-03T15:58:02.386Z,100013.13
2022-10-03T16:00:33.669Z,100020.63
2022-10-03T16:03:14.162Z,100006.53
2022-10-03T16:06:01.717Z,100006.00
2022-10-03T16:08:35.378Z,99998.63
2022-10-03T16:11:10.453Z,100001.19
2022-10-03T16:13:42.697Z,100004.81
2022-10-03T16:16:25.133Z,100003.66
2022-10-03T16:19:04.775Z,100000.25
2022-10-03T16:21:48.980Z,99996.00
2022-10-03T16:24:29.964Z,99988.94
2022-10-03T16:27:07.260Z,99998.22
2022-10-03T16:29:38.720Z,99993.81
2022-10-03T16:32:10.700Z,99993.47
2022-10-03T16:34:45.759Z,99994.75
2022-10-03T16:37:27.776Z,99996.06
2022-10-03T16:40:02.895Z,99990.91
2022-10-03T16:42:41.428Z,99992.38
2022-10-03T16:45:23.787Z,99982.16
2022-10-03T16:48:09.336Z,99986.19
2022-10-03T16:50:43.749Z,99990.91
2022-10-03T16:53:17.749Z,99975.84
2022-10-03T16:55:50.752Z,99983.16
2022-10-03T16:58:24.340Z,99975.06
2022-10-03T17:04:01.507Z,99964.97
2022-10-03T17:06:33.285Z,99976.94
2022-10-03T17:09:09.345Z,99970.59
2022-10-03T17:11:41.979Z,99971.84
2022-10-03T17:14:12.451Z,99979.03
2022-10-03T17:16:47.944Z,99975.47
2022-10-03T17:19:23.877Z,99982.53
2022-10-03T17:21:55.331Z,99984.72
2022-10-03T17:24:40.263Z,99977.88
2022-10-03T17:27:19.687Z,99985.00
2022-10-03T17:29:56.096Z,99983.28
2022-10-03T17:32:27.624Z,99990.72
2022-10-03T17:35:02.843Z,99989.84
2022-10-03T17:37:57.839Z,99986.56
2022-10-03T17:40:47.488Z,99983.28
2022-10-03T17:43:26.082Z,99985.94
2022-10-03T17:46:06.882Z,99985.78
2022-10-03T17:48:44.778Z,99988.66
2022-10-03T17:51:33.109Z,99989.28
2022-10-03T17:54:06.248Z,99986.63
2022-10-03T17:56:43.445Z,99987.69
2022-10-03T17:59:20.007Z,99987.97
2022-10-03T18:01:58.106Z,99986.78
2022-10-03T18:04:34.975Z,99994.78
2022-10-03T18:07:10.887Z,99995.88
2022-10-03T18:09:45.893Z,99993.25
2022-10-03T18:12:25.726Z,99996.50
2022-10-03T18:15:19.927Z,99989.06
2022-10-03T18:18:19.152Z,100000.38
2022-10-03T18:20:52.737Z,100003.50
2022-10-03T18:23:53.644Z,100002.84
2022-10-03T18:26:29.334Z,99998.69
2022-10-03T18:29:15.945Z,99996.97
2022-10-03T18:31:52.060Z,99998.00
2022-10-03T18:34:26.807Z,99996.84
2022-10-03T18:36:57.317Z,99995.66
2022-10-03T18:39:29.175Z,99992.41
2022-10-03T18:42:00.093Z,99981.47
2022-10-03T18:44:32.624Z,99992.19
2022-10-03T18:47:15.008Z,99997.41
2022-10-03T18:49:50.502Z,99989.75
2022-10-03T18:52:22.901Z,99988.13
2022-10-03T18:55:01.175Z,99984.75
2022-10-03T18:57:39.822Z,99979.47
2022-10-03T19:00:21.222Z,99990.47
2022-10-03T19:02:55.228Z,99998.44
2022-10-03T19:05:28.165Z,99991.00
2022-10-03T19:08:11.148Z,99987.84
2022-10-03T19:10:44.918Z,99983.03
2022-10-03T19:13:25.334Z,99983.47
2022-10-03T19:16:30.119Z,99985.69
2022-10-03T19:19:08.088Z,99990.63
2022-10-03T19:21:41.834Z,99983.59
2022-10-03T19:24:17.601Z,99984.56
2022-10-03T19:26:52.438Z,99990.47
2022-10-03T19:29:25.222Z,99993.53
2022-10-03T19:32:18.026Z,99997.28
2022-10-03T19:34:55.510Z,99993.03
2022-10-03T19:37:45.258Z,99986.91
2022-10-03T19:40:18.045Z,99989.75
2022-10-03T19:42:52.228Z,99997.53
2022-10-03T19:45:23.655Z,99987.50
2022-10-03T19:47:57.894Z,99990.28
2022-10-03T19:50:29.812Z,99990.38
2022-10-03T19:53:02.354Z,99992.16
2022-10-03T19:55:36.429Z,99990.34
2022-10-03T19:58:13.257Z,99990.81
2022-10-03T20:00:50.647Z,99991.38
2022-10-03T20:03:25.523Z,99986.50
2022-10-03T20:06:01.333Z,99986.97
2022-10-03T20:08:37.558Z,99990.25
2022-10-03T20:11:23.354Z,99992.63
2022-10-03T20:13:54.506Z,99994.41
2022-10-03T20:16:27.303Z,99994.50
2022-10-03T20:19:06.410Z,99993.69
2022-10-03T20:21:35.382Z,99989.78
2022-10-03T20:24:12.979Z,99985.38
2022-10-03T20:26:50.300Z,99994.19
2022-10-03T20:29:33.071Z,99991.59
2022-10-03T20:32:02.865Z,99990.72
2022-10-03T20:34:36.155Z,99989.16
2022-10-03T20:37:24.571Z,99994.31
2022-10-03T20:39:56.873Z,99996.41
2022-10-03T20:42:31.326Z,100003.66
2022-10-03T20:45:04.076Z,100003.25
2022-10-03T20:47:49.838Z,99997.50
2022-10-03T20:50:26.435Z,99998.13
2022-10-03T20:52:58.487Z,99995.78
2022-10-03T20:55:32.783Z,99996.47
2022-10-03T20:58:08.167Z,99989.78
2022-10-03T21:00:46.335Z,99991.50
2022-10-03T21:03:27.009Z,99997.66
2022-10-03T21:05:59.793Z,99994.56
2022-10-03T21:08:31.331Z,100001.81
2022-10-03T21:11:01.700Z,100004.25
2022-10-03T21:13:35.164Z,100002.03
2022-10-03T21:16:06.648Z,99996.41
2022-10-03T21:18:38.426Z,99991.53
2022-10-03T21:21:14.402Z,99986.69
2022-10-03T21:23:49.433Z,99979.69
2022-10-03T21:26:24.596Z,99985.91
2022-10-03T21:29:17.115Z,99984.97
2022-10-03T21:31:52.027Z,99971.66
2022-10-03T21:34:28.704Z,99973.19
2022-10-03T21:37:12.567Z,99975.00
2022-10-03T21:39:51.522Z,99977.47
2022-10-03T21:42:29.402Z,99977.13
2022-10-03T21:45:23.991Z,99979.44
2022-10-03T21:47:58.891Z,99981.47
2022-10-03T21:50:34.981Z,99975.25
2022-10-03T21:53:19.018Z,99981.75
2022-10-03T21:56:11.650Z,99982.81
2022-10-03T21:59:11.048Z,99994.00
2022-10-03T22:01:49.255Z,99985.56
2022-10-03T22:04:24.382Z,99989.16
2022-10-03T22:07:00.211Z,99999.91
2022-10-03T22:09:30.699Z,99998.03
2022-10-03T22:12:02.963Z,99990.09
2022-10-03T22:14:42.974Z,99986.06
2022-10-03T22:17:21.046Z,99977.31
2022-10-03T22:19:54.179Z,99968.22
2022-10-03T22:22:34.026Z,99971.94
2022-10-03T22:25:19.935Z,99954.56
2022-10-03T22:27:58.134Z,99944.34
2022-10-03T22:30:27.698Z,99937.59
2022-10-03T22:33:11.104Z,99932.34
2022-10-03T22:35:49.341Z,99935.31
2022-10-03T22:38:19.071Z,99935.66
2022-10-03T22:40:51.627Z,99947.84
2022-10-03T22:43:21.697Z,99938.63
2022-10-03T22:45:53.467Z,99950.09
2022-10-03T22:48:26.115Z,99954.84
2022-10-03T22:50:55.704Z,99940.28
2022-10-03T22:53:29.778Z,99938.78
2022-10-03T22:56:01.528Z,99942.56
2022-10-03T22:58:32.669Z,99939.97
2022-10-03T23:01:02.979Z,99937.50
2022-10-03T23:03:34.209Z,99925.47
2022-10-03T23:06:23.304Z,99932.88
2022-10-03T23:09:01.196Z,99938.16
2022-10-03T23:11:32.948Z,99935.53
2022-10-03T23:14:07.134Z,99932.50
2022-10-03T23:16:51.493Z,99929.09
2022-10-03T23:19:33.628Z,99937.97
2022-10-03T23:22:03.483Z,99939.25
2022-10-03T23:24:36.665Z,99938.19
2022-10-03T23:27:42.414Z,99938.88
2022-10-03T23:30:47.505Z,99937.47
2022-10-03T23:33:50.901Z,99948.75
2022-10-03T23:36:22.751Z,99943.53
2022-10-03T23:39:03.566Z,99925.38
2022-10-03T23:41:44.766Z,99923.72
2022-10-03T23:44:48.882Z,99926.75
2022-10-03T23:47:20.857Z,99924.28
2022-10-03T23:49:52.409Z,99914.56
2022-10-03T23:52:25.250Z,99918.59
2022-10-03T23:54:57.707Z,99923.41
2022-10-03T23:57:31.774Z,99934.03
